sensor_id;sensor_type;location;lat;lon;timestamp;temperature;humidity
5136;DHT22;2586;48.710;9.202;2023-02-01T00:01:54;2.90;99.90
5136;DHT22;2586;48.710;9.202;2023-02-01T00:04:20;2.90;99.90
5136;DHT22;2586;48.710;9.202;2023-02-01T00:06:46;2.90;99.90
5136;DHT22;2586;48.710;9.202;2023-02-01T00:09:12;2.90;99.90
5136;DHT22;2586;48.710;9.202;2023-02-01T00:11:38;2.90;1.00
5136;DHT22;2586;48.710;9.202;2023-02-01T00:14:04;2.80;1.00
5136;DHT22;2586;48.710;9.202;2023-02-01T00:16:30;2.80;1.00
5136;DHT22;2586;48.710;9.202;2023-02-01T00:19:06;2.80;1.00
5136;DHT22;2586;48.710;9.202;2023-02-01T00:21:32;2.80;1.00
5136;DHT22;2586;48.710;9.202;2023-02-01T00:23:57;2.80;1.00
5136;DHT22;2586;48.710;9.202;2023-02-01T00:26:33;2.80;1.00
5136;DHT22;2586;48.710;9.202;2023-02-01T00:29:00;2.80;99.90
5136;DHT22;2586;48.710;9.202;2023-02-01T00:31:26;2.80;1.00
5136;DHT22;2586;48.710;9.202;2023-02-01T00:33:52;2.80;99.90
5136;DHT22;2586;48.710;9.202;2023-02-01T00:36:18;2.80;99.90
5136;DHT22;2586;48.710;9.202;2023-02-01T00:38:44;2.80;99.90
5136;DHT22;2586;48.710;9.202;2023-02-01T00:41:15;2.80;99.90
5136;DHT22;2586;48.710;9.202;2023-02-01T00:43:41;2.80;99.90
5136;DHT22;2586;48.710;9.202;2023-02-01T00:46:07;2.90;99.90
5136;DHT22;2586;48.710;9.202;2023-02-01T00:48:33;2.90;99.90
5136;DHT22;2586;48.710;9.202;2023-02-01T00:51:00;2.90;99.90
5136;DHT22;2586;48.710;9.202;2023-02-01T00:53:26;2.90;1.00
5136;DHT22;2586;48.710;9.202;2023-02-01T00:55:52;2.90;1.00
5136;DHT22;2586;48.710;9.202;2023-02-01T00:58:17;2.90;1.00
5136;DHT22;2586;48.710;9.202;2023-02-01T01:00:44;2.90;1.00
5136;DHT22;2586;48.710;9.202;2023-02-01T01:03:09;3.00;1.00
5136;DHT22;2586;48.710;9.202;2023-02-01T01:05:45;3.00;99.90
5136;DHT22;2586;48.710;9.202;2023-02-01T01:08:11;2.90;99.90
5136;DHT22;2586;48.710;9.202;2023-02-01T01:10:36;2.90;99.90
5136;DHT22;2586;48.710;9.202;2023-02-01T01:13:02;2.90;99.90
5136;DHT22;2586;48.710;9.202;2023-02-01T01:15:28;2.90;1.00
5136;DHT22;2586;48.710;9.202;2023-02-01T01:17:53;2.90;99.90
5136;DHT22;2586;48.710;9.202;2023-02-01T01:20:19;2.90;1.00
5136;DHT22;2586;48.710;9.202;2023-02-01T01:22:47;3.00;1.00
5136;DHT22;2586;48.710;9.202;2023-02-01T01:25:13;2.90;1.00
5136;DHT22;2586;48.710;9.202;2023-02-01T01:27:39;2.90;99.90
5136;DHT22;2586;48.710;9.202;2023-02-01T01:30:05;2.90;1.00
5136;DHT22;2586;48.710;9.202;2023-02-01T01:32:31;2.90;99.90
5136;DHT22;2586;48.710;9.202;2023-02-01T01:34:56;2.90;99.90
5136;DHT22;2586;48.710;9.202;2023-02-01T01:37:22;2.90;99.90
5136;DHT22;2586;48.710;9.202;2023-02-01T01:39:47;2.90;99.90
5136;DHT22;2586;48.710;9.202;2023-02-01T01:42:13;3.00;99.90
5136;DHT22;2586;48.710;9.202;2023-02-01T01:45:02;2.90;99.90
5136;DHT22;2586;48.710;9.202;2023-02-01T01:47:38;2.90;99.90
5136;DHT22;2586;48.710;9.202;2023-02-01T01:50:08;3.00;99.90
5136;DHT22;2586;48.710;9.202;2023-02-01T01:52:36;2.90;99.90
5136;DHT22;2586;48.710;9.202;2023-02-01T01:55:02;3.00;99.90
5136;DHT22;2586;48.710;9.202;2023-02-01T01:57:36;3.00;99.90
5136;DHT22;2586;48.710;9.202;2023-02-01T02:00:06;3.00;2.60
5136;DHT22;2586;48.710;9.202;2023-02-01T02:02:33;3.00;2.00
5136;DHT22;2586;48.710;9.202;2023-02-01T02:04:59;3.00;1.00
5136;DHT22;2586;48.710;9.202;2023-02-01T02:07:29;3.00;1.00
5136;DHT22;2586;48.710;9.202;2023-02-01T02:09:56;3.00;1.00
5136;DHT22;2586;48.710;9.202;2023-02-01T02:12:21;3.00;15.80
5136;DHT22;2586;48.710;9.202;2023-02-01T02:14:47;3.00;77.00
5136;DHT22;2586;48.710;9.202;2023-02-01T02:20:36;3.00;99.90
5136;DHT22;2586;48.710;9.202;2023-02-01T02:45:40;3.20;1.00
5136;DHT22;2586;48.710;9.202;2023-02-01T02:51:41;3.20;1.00
5136;DHT22;2586;48.710;9.202;2023-02-01T02:54:38;3.20;1.00
5136;DHT22;2586;48.710;9.202;2023-02-01T02:57:30;3.20;1.00
5136;DHT22;2586;48.710;9.202;2023-02-01T03:00:17;3.20;1.00
5136;DHT22;2586;48.710;9.202;2023-02-01T03:03:03;3.20;1.00
5136;DHT22;2586;48.710;9.202;2023-02-01T03:05:49;3.20;1.00
5136;DHT22;2586;48.710;9.202;2023-02-01T03:08:23;3.30;1.00
5136;DHT22;2586;48.710;9.202;2023-02-01T03:14:01;3.20;99.90
5136;DHT22;2586;48.710;9.202;2023-02-01T03:16:32;3.20;99.90
5136;DHT22;2586;48.710;9.202;2023-02-01T03:19:16;3.20;99.90
5136;DHT22;2586;48.710;9.202;2023-02-01T03:21:50;3.20;99.90
5136;DHT22;2586;48.710;9.202;2023-02-01T03:24:44;3.20;72.10
5136;DHT22;2586;48.710;9.202;2023-02-01T03:32:36;3.30;1.00
5136;DHT22;2586;48.710;9.202;2023-02-01T03:38:20;3.30;1.00
5136;DHT22;2586;48.710;9.202;2023-02-01T03:40:52;3.30;28.60
5136;DHT22;2586;48.710;9.202;2023-02-01T03:43:19;3.30;1.00
5136;DHT22;2586;48.710;9.202;2023-02-01T03:45:54;3.30;78.80
5136;DHT22;2586;48.710;9.202;2023-02-01T03:48:23;3.30;99.90
5136;DHT22;2586;48.710;9.202;2023-02-01T03:50:52;3.30;1.00
5136;DHT22;2586;48.710;9.202;2023-02-01T03:53:21;3.30;1.00
5136;DHT22;2586;48.710;9.202;2023-02-01T03:55:48;3.20;1.00
5136;DHT22;2586;48.710;9.202;2023-02-01T03:58:20;3.20;1.00
5136;DHT22;2586;48.710;9.202;2023-02-01T04:00:53;3.20;1.00
5136;DHT22;2586;48.710;9.202;2023-02-01T04:03:19;3.20;1.00
5136;DHT22;2586;48.710;9.202;2023-02-01T04:05:44;3.20;1.00
5136;DHT22;2586;48.710;9.202;2023-02-01T04:08:10;3.20;1.00
5136;DHT22;2586;48.710;9.202;2023-02-01T04:10:35;3.20;1.00
5136;DHT22;2586;48.710;9.202;2023-02-01T04:13:01;3.20;1.00
5136;DHT22;2586;48.710;9.202;2023-02-01T04:15:26;3.30;1.00
5136;DHT22;2586;48.710;9.202;2023-02-01T04:17:52;3.20;1.00
5136;DHT22;2586;48.710;9.202;2023-02-01T04:20:17;3.30;99.90
5136;DHT22;2586;48.710;9.202;2023-02-01T04:22:43;3.30;1.00
5136;DHT22;2586;48.710;9.202;2023-02-01T04:25:09;3.30;99.90
5136;DHT22;2586;48.710;9.202;2023-02-01T04:27:35;3.30;99.90
5136;DHT22;2586;48.710;9.202;2023-02-01T04:30:00;3.30;99.90
5136;DHT22;2586;48.710;9.202;2023-02-01T04:32:26;3.30;99.90
5136;DHT22;2586;48.710;9.202;2023-02-01T04:34:51;3.30;34.80
5136;DHT22;2586;48.710;9.202;2023-02-01T04:37:17;3.40;1.00
5136;DHT22;2586;48.710;9.202;2023-02-01T04:39:42;3.40;1.00
5136;DHT22;2586;48.710;9.202;2023-02-01T04:42:08;3.40;1.00
5136;DHT22;2586;48.710;9.202;2023-02-01T04:44:34;3.40;1.00
5136;DHT22;2586;48.710;9.202;2023-02-01T04:46:59;3.40;1.00
5136;DHT22;2586;48.710;9.202;2023-02-01T04:49:25;3.40;1.00
5136;DHT22;2586;48.710;9.202;2023-02-01T04:51:52;3.40;1.00
5136;DHT22;2586;48.710;9.202;2023-02-01T04:54:17;3.40;1.00
5136;DHT22;2586;48.710;9.202;2023-02-01T04:56:43;3.40;1.00
5136;DHT22;2586;48.710;9.202;2023-02-01T04:59:10;3.40;99.90
5136;DHT22;2586;48.710;9.202;2023-02-01T05:01:36;3.40;99.90
5136;DHT22;2586;48.710;9.202;2023-02-01T05:04:02;3.40;99.90
5136;DHT22;2586;48.710;9.202;2023-02-01T05:06:27;3.40;99.90
5136;DHT22;2586;48.710;9.202;2023-02-01T05:08:53;3.40;1.00
5136;DHT22;2586;48.710;9.202;2023-02-01T05:11:19;3.40;1.00
5136;DHT22;2586;48.710;9.202;2023-02-01T05:14:03;3.50;1.00
5136;DHT22;2586;48.710;9.202;2023-02-01T05:16:28;3.40;1.00
5136;DHT22;2586;48.710;9.202;2023-02-01T05:18:54;3.40;1.00
5136;DHT22;2586;48.710;9.202;2023-02-01T05:21:20;3.40;1.00
5136;DHT22;2586;48.710;9.202;2023-02-01T05:23:45;3.50;1.00
5136;DHT22;2586;48.710;9.202;2023-02-01T05:26:30;3.50;1.00
5136;DHT22;2586;48.710;9.202;2023-02-01T05:28:55;3.50;1.00
5136;DHT22;2586;48.710;9.202;2023-02-01T05:31:21;3.50;1.00
5136;DHT22;2586;48.710;9.202;2023-02-01T05:33:47;3.50;1.00
5136;DHT22;2586;48.710;9.202;2023-02-01T05:36:13;3.50;99.90
5136;DHT22;2586;48.710;9.202;2023-02-01T05:38:38;3.50;99.90
5136;DHT22;2586;48.710;9.202;2023-02-01T05:41:04;3.60;99.90
5136;DHT22;2586;48.710;9.202;2023-02-01T05:43:30;3.60;99.90
5136;DHT22;2586;48.710;9.202;2023-02-01T05:45:55;3.50;59.70
5136;DHT22;2586;48.710;9.202;2023-02-01T05:48:21;3.50;99.90
5136;DHT22;2586;48.710;9.202;2023-02-01T05:50:47;3.50;99.90
5136;DHT22;2586;48.710;9.202;2023-02-01T05:53:12;3.60;99.90
5136;DHT22;2586;48.710;9.202;2023-02-01T05:55:38;3.50;1.00
5136;DHT22;2586;48.710;9.202;2023-02-01T05:58:05;3.50;1.00
5136;DHT22;2586;48.710;9.202;2023-02-01T06:00:31;3.50;99.90
5136;DHT22;2586;48.710;9.202;2023-02-01T06:02:57;3.50;99.90
5136;DHT22;2586;48.710;9.202;2023-02-01T06:05:22;3.40;1.00
5136;DHT22;2586;48.710;9.202;2023-02-01T06:07:48;3.40;1.00
5136;DHT22;2586;48.710;9.202;2023-02-01T06:10:16;3.40;99.90
5136;DHT22;2586;48.710;9.202;2023-02-01T06:12:42;3.40;1.00
5136;DHT22;2586;48.710;9.202;2023-02-01T06:15:08;3.30;99.90
5136;DHT22;2586;48.710;9.202;2023-02-01T06:17:33;3.30;1.00
5136;DHT22;2586;48.710;9.202;2023-02-01T06:19:59;3.30;99.90
5136;DHT22;2586;48.710;9.202;2023-02-01T06:22:25;3.30;99.90
5136;DHT22;2586;48.710;9.202;2023-02-01T06:24:50;3.20;1.00
5136;DHT22;2586;48.710;9.202;2023-02-01T06:27:16;3.20;1.00
5136;DHT22;2586;48.710;9.202;2023-02-01T06:29:41;3.20;1.00
5136;DHT22;2586;48.710;9.202;2023-02-01T06:32:07;3.20;99.90
5136;DHT22;2586;48.710;9.202;2023-02-01T06:34:33;3.20;99.90
5136;DHT22;2586;48.710;9.202;2023-02-01T06:36:59;3.20;99.90
5136;DHT22;2586;48.710;9.202;2023-02-01T06:39:24;3.20;99.90
5136;DHT22;2586;48.710;9.202;2023-02-01T06:41:52;3.20;99.90
5136;DHT22;2586;48.710;9.202;2023-02-01T06:44:18;3.30;1.00
5136;DHT22;2586;48.710;9.202;2023-02-01T06:46:43;3.30;99.90
5136;DHT22;2586;48.710;9.202;2023-02-01T06:49:09;3.40;99.90
5136;DHT22;2586;48.710;9.202;2023-02-01T06:51:35;3.40;19.90
5136;DHT22;2586;48.710;9.202;2023-02-01T06:54:00;3.60;99.90
5136;DHT22;2586;48.710;9.202;2023-02-01T06:56:26;3.70;99.90
5136;DHT22;2586;48.710;9.202;2023-02-01T06:58:52;3.90;96.20
5136;DHT22;2586;48.710;9.202;2023-02-01T07:01:18;4.00;91.80
5136;DHT22;2586;48.710;9.202;2023-02-01T07:03:51;3.90;99.90
5136;DHT22;2586;48.710;9.202;2023-02-01T07:06:17;3.70;99.90
5136;DHT22;2586;48.710;9.202;2023-02-01T07:08:43;3.60;99.90
5136;DHT22;2586;48.710;9.202;2023-02-01T07:11:10;3.60;1.00
5136;DHT22;2586;48.710;9.202;2023-02-01T07:13:37;3.60;1.00
5136;DHT22;2586;48.710;9.202;2023-02-01T07:16:05;3.50;1.00
5136;DHT22;2586;48.710;9.202;2023-02-01T07:18:31;3.60;32.50
5136;DHT22;2586;48.710;9.202;2023-02-01T07:20:57;3.60;1.00
5136;DHT22;2586;48.710;9.202;2023-02-01T07:23:22;3.60;1.00
5136;DHT22;2586;48.710;9.202;2023-02-01T07:25:48;3.60;1.00
5136;DHT22;2586;48.710;9.202;2023-02-01T07:28:14;3.60;1.00
5136;DHT22;2586;48.710;9.202;2023-02-01T07:30:40;3.60;1.00
5136;DHT22;2586;48.710;9.202;2023-02-01T07:33:06;3.60;1.00
5136;DHT22;2586;48.710;9.202;2023-02-01T07:35:32;3.60;1.00
5136;DHT22;2586;48.710;9.202;2023-02-01T07:37:58;3.60;99.90
5136;DHT22;2586;48.710;9.202;2023-02-01T07:40:24;3.70;99.90
5136;DHT22;2586;48.710;9.202;2023-02-01T07:42:54;3.70;99.90
5136;DHT22;2586;48.710;9.202;2023-02-01T07:45:21;3.70;1.00
5136;DHT22;2586;48.710;9.202;2023-02-01T07:47:46;3.80;1.00
5136;DHT22;2586;48.710;9.202;2023-02-01T07:50:12;3.80;1.00
5136;DHT22;2586;48.710;9.202;2023-02-01T07:52:38;3.80;1.00
5136;DHT22;2586;48.710;9.202;2023-02-01T07:55:03;3.80;1.00
5136;DHT22;2586;48.710;9.202;2023-02-01T07:57:29;3.90;1.00
5136;DHT22;2586;48.710;9.202;2023-02-01T07:59:55;3.90;1.00
5136;DHT22;2586;48.710;9.202;2023-02-01T08:02:39;3.90;99.90
5136;DHT22;2586;48.710;9.202;2023-02-01T08:05:05;4.00;99.90
5136;DHT22;2586;48.710;9.202;2023-02-01T08:07:31;4.00;99.90
5136;DHT22;2586;48.710;9.202;2023-02-01T08:09:56;4.00;99.90
5136;DHT22;2586;48.710;9.202;2023-02-01T08:12:22;4.00;99.90
5136;DHT22;2586;48.710;9.202;2023-02-01T08:14:47;4.00;99.90
5136;DHT22;2586;48.710;9.202;2023-02-01T08:17:13;4.00;99.90
5136;DHT22;2586;48.710;9.202;2023-02-01T08:19:38;4.00;16.80
5136;DHT22;2586;48.710;9.202;2023-02-01T08:22:04;4.00;1.00
5136;DHT22;2586;48.710;9.202;2023-02-01T08:24:33;4.00;1.00
5136;DHT22;2586;48.710;9.202;2023-02-01T08:27:00;4.00;1.00
5136;DHT22;2586;48.710;9.202;2023-02-01T08:29:25;4.10;1.00
5136;DHT22;2586;48.710;9.202;2023-02-01T08:31:51;4.10;1.00
5136;DHT22;2586;48.710;9.202;2023-02-01T08:34:17;4.20;99.90
5136;DHT22;2586;48.710;9.202;2023-02-01T08:36:42;4.20;99.90
5136;DHT22;2586;48.710;9.202;2023-02-01T08:39:09;4.20;67.10
5136;DHT22;2586;48.710;9.202;2023-02-01T08:41:36;4.30;52.10
5136;DHT22;2586;48.710;9.202;2023-02-01T08:44:02;4.30;1.00
5136;DHT22;2586;48.710;9.202;2023-02-01T08:46:27;4.40;1.00
5136;DHT22;2586;48.710;9.202;2023-02-01T08:48:53;4.50;1.00
5136;DHT22;2586;48.710;9.202;2023-02-01T08:51:21;4.50;1.00
5136;DHT22;2586;48.710;9.202;2023-02-01T08:53:47;4.60;1.00
5136;DHT22;2586;48.710;9.202;2023-02-01T08:56:14;4.70;1.00
5136;DHT22;2586;48.710;9.202;2023-02-01T08:58:40;4.70;99.90
5136;DHT22;2586;48.710;9.202;2023-02-01T09:01:08;4.70;1.00
5136;DHT22;2586;48.710;9.202;2023-02-01T09:03:35;4.70;99.90
5136;DHT22;2586;48.710;9.202;2023-02-01T09:06:02;4.70;99.90
5136;DHT22;2586;48.710;9.202;2023-02-01T09:08:27;4.70;99.90
5136;DHT22;2586;48.710;9.202;2023-02-01T09:10:53;4.70;1.00
5136;DHT22;2586;48.710;9.202;2023-02-01T09:13:19;4.70;99.90
5136;DHT22;2586;48.710;9.202;2023-02-01T09:15:45;4.70;99.90
5136;DHT22;2586;48.710;9.202;2023-02-01T09:18:10;4.70;99.90
5136;DHT22;2586;48.710;9.202;2023-02-01T09:20:37;4.70;99.90
5136;DHT22;2586;48.710;9.202;2023-02-01T09:23:02;4.60;99.90
5136;DHT22;2586;48.710;9.202;2023-02-01T09:25:28;4.60;1.00
5136;DHT22;2586;48.710;9.202;2023-02-01T09:27:53;4.60;99.90
5136;DHT22;2586;48.710;9.202;2023-02-01T09:30:19;4.60;1.00
5136;DHT22;2586;48.710;9.202;2023-02-01T09:32:45;4.60;99.90
5136;DHT22;2586;48.710;9.202;2023-02-01T09:35:10;4.50;99.90
5136;DHT22;2586;48.710;9.202;2023-02-01T09:37:36;4.50;99.90
5136;DHT22;2586;48.710;9.202;2023-02-01T09:40:03;4.60;99.90
5136;DHT22;2586;48.710;9.202;2023-02-01T09:43:02;4.60;99.90
5136;DHT22;2586;48.710;9.202;2023-02-01T09:45:34;4.60;99.90
5136;DHT22;2586;48.710;9.202;2023-02-01T09:48:13;4.60;99.90
5136;DHT22;2586;48.710;9.202;2023-02-01T09:50:41;4.60;99.90
5136;DHT22;2586;48.710;9.202;2023-02-01T09:53:38;4.60;99.90
5136;DHT22;2586;48.710;9.202;2023-02-01T09:56:10;4.60;99.90
5136;DHT22;2586;48.710;9.202;2023-02-01T10:01:39;4.80;99.90
5136;DHT22;2586;48.710;9.202;2023-02-01T10:04:08;4.80;99.90
5136;DHT22;2586;48.710;9.202;2023-02-01T10:14:51;5.00;1.00
5136;DHT22;2586;48.710;9.202;2023-02-01T10:27:02;5.10;1.00
5136;DHT22;2586;48.710;9.202;2023-02-01T10:29:43;5.10;1.00
5136;DHT22;2586;48.710;9.202;2023-02-01T10:32:21;5.00;1.00
5136;DHT22;2586;48.710;9.202;2023-02-01T10:35:17;4.90;1.00
5136;DHT22;2586;48.710;9.202;2023-02-01T10:37:44;4.90;1.00
5136;DHT22;2586;48.710;9.202;2023-02-01T10:40:23;5.00;1.00
5136;DHT22;2586;48.710;9.202;2023-02-01T10:42:58;5.00;1.00
5136;DHT22;2586;48.710;9.202;2023-02-01T10:45:27;4.90;1.00
5136;DHT22;2586;48.710;9.202;2023-02-01T10:47:56;5.00;1.00
5136;DHT22;2586;48.710;9.202;2023-02-01T10:50:51;5.00;1.00
5136;DHT22;2586;48.710;9.202;2023-02-01T10:55:54;5.00;1.00
5136;DHT22;2586;48.710;9.202;2023-02-01T10:58:32;5.10;1.00
5136;DHT22;2586;48.710;9.202;2023-02-01T11:01:00;5.10;99.90
5136;DHT22;2586;48.710;9.202;2023-02-01T11:08:55;5.10;99.90
5136;DHT22;2586;48.710;9.202;2023-02-01T11:11:24;5.20;99.90
5136;DHT22;2586;48.710;9.202;2023-02-01T11:14:01;5.20;1.00
5136;DHT22;2586;48.710;9.202;2023-02-01T11:16:39;5.30;78.00
5136;DHT22;2586;48.710;9.202;2023-02-01T11:19:06;5.40;99.90
5136;DHT22;2586;48.710;9.202;2023-02-01T11:21:33;5.50;99.90
5136;DHT22;2586;48.710;9.202;2023-02-01T11:24:04;5.60;1.00
5136;DHT22;2586;48.710;9.202;2023-02-01T11:26:31;5.70;26.00
5136;DHT22;2586;48.710;9.202;2023-02-01T11:28:59;5.70;99.90
5136;DHT22;2586;48.710;9.202;2023-02-01T11:31:27;5.70;99.90
5136;DHT22;2586;48.710;9.202;2023-02-01T11:34:12;5.70;1.00
5136;DHT22;2586;48.710;9.202;2023-02-01T11:36:39;5.70;1.00
5136;DHT22;2586;48.710;9.202;2023-02-01T11:41:54;5.70;1.00
5136;DHT22;2586;48.710;9.202;2023-02-01T11:44:34;5.70;1.00
5136;DHT22;2586;48.710;9.202;2023-02-01T11:47:22;5.70;1.00
5136;DHT22;2586;48.710;9.202;2023-02-01T11:49:51;5.70;1.00
5136;DHT22;2586;48.710;9.202;2023-02-01T11:52:40;5.70;1.00
5136;DHT22;2586;48.710;9.202;2023-02-01T11:55:35;5.70;1.00
5136;DHT22;2586;48.710;9.202;2023-02-01T11:58:22;5.60;1.00
5136;DHT22;2586;48.710;9.202;2023-02-01T12:12:24;5.80;1.00
5136;DHT22;2586;48.710;9.202;2023-02-01T12:17:52;5.70;1.00
5136;DHT22;2586;48.710;9.202;2023-02-01T12:28:26;5.70;1.00
5136;DHT22;2586;48.710;9.202;2023-02-01T12:33:53;5.70;1.00
5136;DHT22;2586;48.710;9.202;2023-02-01T12:39:21;5.50;1.00
5136;DHT22;2586;48.710;9.202;2023-02-01T12:42:20;5.50;1.00
5136;DHT22;2586;48.710;9.202;2023-02-01T12:45:28;5.50;1.00
5136;DHT22;2586;48.710;9.202;2023-02-01T12:48:03;5.60;1.00
5136;DHT22;2586;48.710;9.202;2023-02-01T12:50:41;5.50;1.00
5136;DHT22;2586;48.710;9.202;2023-02-01T12:53:19;5.50;1.00
5136;DHT22;2586;48.710;9.202;2023-02-01T12:55:58;5.50;1.00
5136;DHT22;2586;48.710;9.202;2023-02-01T12:58:32;5.40;1.00
5136;DHT22;2586;48.710;9.202;2023-02-01T13:01:11;5.40;1.00
5136;DHT22;2586;48.710;9.202;2023-02-01T13:03:57;5.40;1.00
5136;DHT22;2586;48.710;9.202;2023-02-01T13:06:33;5.40;1.00
5136;DHT22;2586;48.710;9.202;2023-02-01T13:11:37;5.30;1.00
5136;DHT22;2586;48.710;9.202;2023-02-01T13:17:24;5.30;1.00
5136;DHT22;2586;48.710;9.202;2023-02-01T13:22:33;5.30;1.00
5136;DHT22;2586;48.710;9.202;2023-02-01T13:25:03;5.30;1.00
5136;DHT22;2586;48.710;9.202;2023-02-01T13:27:30;5.30;1.00
5136;DHT22;2586;48.710;9.202;2023-02-01T13:30:16;5.20;1.00
5136;DHT22;2586;48.710;9.202;2023-02-01T13:41:32;5.30;1.00
5136;DHT22;2586;48.710;9.202;2023-02-01T13:44:10;5.30;1.00
5136;DHT22;2586;48.710;9.202;2023-02-01T13:46:41;5.30;1.00
5136;DHT22;2586;48.710;9.202;2023-02-01T13:49:21;5.30;1.00
5136;DHT22;2586;48.710;9.202;2023-02-01T13:51:50;5.30;1.00
5136;DHT22;2586;48.710;9.202;2023-02-01T13:54:38;5.30;1.00
5136;DHT22;2586;48.710;9.202;2023-02-01T13:57:06;5.20;1.00
5136;DHT22;2586;48.710;9.202;2023-02-01T14:05:12;5.20;1.00
5136;DHT22;2586;48.710;9.202;2023-02-01T14:10:59;5.10;99.90
5136;DHT22;2586;48.710;9.202;2023-02-01T14:13:30;5.00;99.90
5136;DHT22;2586;48.710;9.202;2023-02-01T14:23:42;5.10;99.90
5136;DHT22;2586;48.710;9.202;2023-02-01T14:26:12;5.10;99.90
5136;DHT22;2586;48.710;9.202;2023-02-01T14:28:45;5.10;40.60
5136;DHT22;2586;48.710;9.202;2023-02-01T14:34:31;5.10;99.90
5136;DHT22;2586;48.710;9.202;2023-02-01T14:37:02;5.10;97.00
5136;DHT22;2586;48.710;9.202;2023-02-01T14:39:35;5.10;41.10
5136;DHT22;2586;48.710;9.202;2023-02-01T14:42:20;5.10;99.90
5136;DHT22;2586;48.710;9.202;2023-02-01T14:44:48;5.10;4.50
5136;DHT22;2586;48.710;9.202;2023-02-01T15:01:01;5.10;9.00
5136;DHT22;2586;48.710;9.202;2023-02-01T15:05:59;5.10;1.00
5136;DHT22;2586;48.710;9.202;2023-02-01T15:08:33;5.20;1.00
5136;DHT22;2586;48.710;9.202;2023-02-01T15:11:12;5.20;1.00
5136;DHT22;2586;48.710;9.202;2023-02-01T15:13:39;5.30;1.00
5136;DHT22;2586;48.710;9.202;2023-02-01T15:18:31;5.30;1.00
5136;DHT22;2586;48.710;9.202;2023-02-01T15:20:58;5.30;1.00
5136;DHT22;2586;48.710;9.202;2023-02-01T15:23:24;5.30;1.00
5136;DHT22;2586;48.710;9.202;2023-02-01T15:25:50;5.30;1.00
5136;DHT22;2586;48.710;9.202;2023-02-01T15:28:16;5.30;1.00
5136;DHT22;2586;48.710;9.202;2023-02-01T15:31:14;5.30;1.00
5136;DHT22;2586;48.710;9.202;2023-02-01T15:33:56;5.30;1.00
5136;DHT22;2586;48.710;9.202;2023-02-01T15:36:22;5.30;1.00
5136;DHT22;2586;48.710;9.202;2023-02-01T15:39:17;5.30;1.00
5136;DHT22;2586;48.710;9.202;2023-02-01T15:41:59;5.30;1.00
5136;DHT22;2586;48.710;9.202;2023-02-01T15:44:39;5.30;1.00
5136;DHT22;2586;48.710;9.202;2023-02-01T15:47:16;5.30;1.00
5136;DHT22;2586;48.710;9.202;2023-02-01T15:49:44;5.30;1.00
5136;DHT22;2586;48.710;9.202;2023-02-01T15:52:20;5.40;1.00
5136;DHT22;2586;48.710;9.202;2023-02-01T15:54:48;5.30;1.00
5136;DHT22;2586;48.710;9.202;2023-02-01T15:57:27;5.30;1.00
5136;DHT22;2586;48.710;9.202;2023-02-01T16:00:17;5.20;1.00
5136;DHT22;2586;48.710;9.202;2023-02-01T16:02:52;5.20;34.70
5136;DHT22;2586;48.710;9.202;2023-02-01T16:05:40;5.10;99.90
5136;DHT22;2586;48.710;9.202;2023-02-01T16:08:24;5.00;99.90
5136;DHT22;2586;48.710;9.202;2023-02-01T16:10:53;5.00;99.90
5136;DHT22;2586;48.710;9.202;2023-02-01T16:13:20;5.00;99.90
5136;DHT22;2586;48.710;9.202;2023-02-01T16:15:46;5.00;99.90
5136;DHT22;2586;48.710;9.202;2023-02-01T16:18:13;5.00;99.90
5136;DHT22;2586;48.710;9.202;2023-02-01T16:20:40;5.00;99.90
5136;DHT22;2586;48.710;9.202;2023-02-01T16:23:07;5.00;99.90
5136;DHT22;2586;48.710;9.202;2023-02-01T16:25:33;4.90;99.90
5136;DHT22;2586;48.710;9.202;2023-02-01T16:27:59;4.90;99.90
5136;DHT22;2586;48.710;9.202;2023-02-01T16:30:25;4.90;99.90
5136;DHT22;2586;48.710;9.202;2023-02-01T16:33:01;4.90;99.90
5136;DHT22;2586;48.710;9.202;2023-02-01T16:35:37;4.90;99.90
5136;DHT22;2586;48.710;9.202;2023-02-01T16:38:13;4.90;99.90
5136;DHT22;2586;48.710;9.202;2023-02-01T16:40:40;4.90;99.90
5136;DHT22;2586;48.710;9.202;2023-02-01T16:43:17;4.90;99.90
5136;DHT22;2586;48.710;9.202;2023-02-01T16:45:45;4.90;99.90
5136;DHT22;2586;48.710;9.202;2023-02-01T16:48:25;4.90;99.90
5136;DHT22;2586;48.710;9.202;2023-02-01T16:50:57;4.90;99.90
5136;DHT22;2586;48.710;9.202;2023-02-01T16:53:24;4.80;99.90
5136;DHT22;2586;48.710;9.202;2023-02-01T16:55:50;4.90;99.90
5136;DHT22;2586;48.710;9.202;2023-02-01T16:58:17;4.80;99.90
5136;DHT22;2586;48.710;9.202;2023-02-01T17:00:43;4.80;99.90
5136;DHT22;2586;48.710;9.202;2023-02-01T17:03:10;4.80;99.90
5136;DHT22;2586;48.710;9.202;2023-02-01T17:05:43;4.80;99.90
5136;DHT22;2586;48.710;9.202;2023-02-01T17:08:13;4.80;99.90
5136;DHT22;2586;48.710;9.202;2023-02-01T17:10:40;4.80;99.90
5136;DHT22;2586;48.710;9.202;2023-02-01T17:13:10;4.80;99.90
5136;DHT22;2586;48.710;9.202;2023-02-01T17:15:37;4.80;99.90
5136;DHT22;2586;48.710;9.202;2023-02-01T17:18:03;4.80;99.90
5136;DHT22;2586;48.710;9.202;2023-02-01T17:20:31;4.80;99.90
5136;DHT22;2586;48.710;9.202;2023-02-01T17:22:57;4.80;99.90
5136;DHT22;2586;48.710;9.202;2023-02-01T17:25:23;4.80;20.70
5136;DHT22;2586;48.710;9.202;2023-02-01T17:27:50;4.80;99.90
5136;DHT22;2586;48.710;9.202;2023-02-01T17:30:16;4.80;67.70
5136;DHT22;2586;48.710;9.202;2023-02-01T17:32:42;4.80;99.90
5136;DHT22;2586;48.710;9.202;2023-02-01T17:35:19;4.80;99.90
5136;DHT22;2586;48.710;9.202;2023-02-01T17:37:46;4.70;99.90
5136;DHT22;2586;48.710;9.202;2023-02-01T17:40:11;4.80;99.90
5136;DHT22;2586;48.710;9.202;2023-02-01T17:42:37;4.80;99.90
5136;DHT22;2586;48.710;9.202;2023-02-01T17:45:34;4.80;99.90
5136;DHT22;2586;48.710;9.202;2023-02-01T17:48:07;4.70;99.90
5136;DHT22;2586;48.710;9.202;2023-02-01T17:50:35;4.70;99.90
5136;DHT22;2586;48.710;9.202;2023-02-01T17:53:01;4.70;99.90
5136;DHT22;2586;48.710;9.202;2023-02-01T17:55:28;4.70;99.90
5136;DHT22;2586;48.710;9.202;2023-02-01T17:57:53;4.70;99.90
5136;DHT22;2586;48.710;9.202;2023-02-01T18:00:20;4.70;99.90
5136;DHT22;2586;48.710;9.202;2023-02-01T18:02:46;4.70;99.90
5136;DHT22;2586;48.710;9.202;2023-02-01T18:05:25;4.70;99.90
5136;DHT22;2586;48.710;9.202;2023-02-01T18:07:51;4.70;99.90
5136;DHT22;2586;48.710;9.202;2023-02-01T18:10:17;4.60;99.90
5136;DHT22;2586;48.710;9.202;2023-02-01T18:12:43;4.60;99.90
5136;DHT22;2586;48.710;9.202;2023-02-01T18:17:39;4.60;99.90
5136;DHT22;2586;48.710;9.202;2023-02-01T18:20:05;4.60;99.90
5136;DHT22;2586;48.710;9.202;2023-02-01T18:22:30;4.60;99.90
5136;DHT22;2586;48.710;9.202;2023-02-01T18:24:56;4.60;99.90
5136;DHT22;2586;48.710;9.202;2023-02-01T18:27:22;4.60;99.90
5136;DHT22;2586;48.710;9.202;2023-02-01T18:29:48;4.60;99.90
5136;DHT22;2586;48.710;9.202;2023-02-01T18:32:14;4.70;99.90
5136;DHT22;2586;48.710;9.202;2023-02-01T18:34:39;4.70;99.90
5136;DHT22;2586;48.710;9.202;2023-02-01T18:37:05;4.70;99.90
5136;DHT22;2586;48.710;9.202;2023-02-01T18:39:31;4.70;99.90
5136;DHT22;2586;48.710;9.202;2023-02-01T18:41:57;4.60;99.90
5136;DHT22;2586;48.710;9.202;2023-02-01T18:44:23;4.60;99.90
5136;DHT22;2586;48.710;9.202;2023-02-01T18:46:48;4.70;99.90
5136;DHT22;2586;48.710;9.202;2023-02-01T18:49:14;4.60;99.90
5136;DHT22;2586;48.710;9.202;2023-02-01T18:51:42;4.60;99.90
5136;DHT22;2586;48.710;9.202;2023-02-01T18:54:09;4.60;99.90
5136;DHT22;2586;48.710;9.202;2023-02-01T18:56:36;4.60;99.90
5136;DHT22;2586;48.710;9.202;2023-02-01T18:59:02;4.60;99.90
5136;DHT22;2586;48.710;9.202;2023-02-01T19:01:27;4.70;99.90
5136;DHT22;2586;48.710;9.202;2023-02-01T19:03:53;4.70;99.90
5136;DHT22;2586;48.710;9.202;2023-02-01T19:06:19;4.70;96.50
5136;DHT22;2586;48.710;9.202;2023-02-01T19:08:45;4.80;99.90
5136;DHT22;2586;48.710;9.202;2023-02-01T19:11:11;4.80;99.70
5136;DHT22;2586;48.710;9.202;2023-02-01T19:13:37;4.80;1.00
5136;DHT22;2586;48.710;9.202;2023-02-01T19:16:10;4.80;1.40
5136;DHT22;2586;48.710;9.202;2023-02-01T19:18:37;4.80;1.00
5136;DHT22;2586;48.710;9.202;2023-02-01T19:21:12;4.80;1.00
5136;DHT22;2586;48.710;9.202;2023-02-01T19:23:38;4.80;1.00